sensor_id;sensor_type;location;lat;lon;timestamp;pressure;altitude;pressure_sealevel;temperature;humidity
8366;BME280;4220;42.502;24.188;2023-02-11T00:01:06;96861.03;;;-5.66;84.53
8366;BME280;4220;42.502;24.188;2023-02-11T00:03:33;96863.69;;;-5.51;84.18
8366;BME280;4220;42.502;24.188;2023-02-11T00:06:02;96858.59;;;-5.37;82.73
8366;BME280;4220;42.502;24.188;2023-02-11T00:08:30;96849.50;;;-5.28;81.66
8366;BME280;4220;42.502;24.188;2023-02-11T00:10:58;96856.03;;;-5.21;81.02
8366;BME280;4220;42.502;24.188;2023-02-11T00:13:25;96861.78;;;-5.16;79.99
8366;BME280;4220;42.502;24.188;2023-02-11T00:15:52;96863.69;;;-5.35;79.11
8366;BME280;4220;42.502;24.188;2023-02-11T00:18:19;96866.19;;;-5.34;79.79
8366;BME280;4220;42.502;24.188;2023-02-11T00:20:46;96853.59;;;-5.24;79.60
8366;BME280;4220;42.502;24.188;2023-02-11T00:23:13;96853.91;;;-5.30;78.69
8366;BME280;4220;42.502;24.188;2023-02-11T00:25:41;96862.94;;;-5.37;78.94
8366;BME280;4220;42.502;24.188;2023-02-11T00:28:10;96834.41;;;-5.51;79.78
8366;BME280;4220;42.502;24.188;2023-02-11T00:30:37;96850.16;;;-5.40;79.76
8366;BME280;4220;42.502;24.188;2023-02-11T00:33:03;96843.94;;;-5.36;80.09
8366;BME280;4220;42.502;24.188;2023-02-11T00:35:30;96847.09;;;-5.31;79.07
8366;BME280;4220;42.502;24.188;2023-02-11T00:37:57;96843.59;;;-5.30;78.42
8366;BME280;4220;42.502;24.188;2023-02-11T00:40:24;96845.69;;;-5.37;77.30
8366;BME280;4220;42.502;24.188;2023-02-11T00:42:51;96851.31;;;-5.61;77.31
8366;BME280;4220;42.502;24.188;2023-02-11T00:45:19;96846.91;;;-5.92;79.87
8366;BME280;4220;42.502;24.188;2023-02-11T00:47:46;96842.91;;;-5.97;82.41
8366;BME280;4220;42.502;24.188;2023-02-11T00:50:13;96839.00;;;-6.22;83.08
8366;BME280;4220;42.502;24.188;2023-02-11T00:52:40;96848.63;;;-6.25;85.46
8366;BME280;4220;42.502;24.188;2023-02-11T00:55:07;96844.53;;;-6.12;85.18
8366;BME280;4220;42.502;24.188;2023-02-11T00:57:34;96841.31;;;-6.00;84.18
8366;BME280;4220;42.502;24.188;2023-02-11T01:00:01;96839.97;;;-6.07;83.52
8366;BME280;4220;42.502;24.188;2023-02-11T01:02:29;96834.25;;;-5.97;83.33
8366;BME280;4220;42.502;24.188;2023-02-11T01:04:56;96826.66;;;-5.84;82.92
8366;BME280;4220;42.502;24.188;2023-02-11T01:07:24;96830.69;;;-5.78;82.27
8366;BME280;4220;42.502;24.188;2023-02-11T01:09:51;96836.19;;;-5.84;80.85
8366;BME280;4220;42.502;24.188;2023-02-11T01:12:18;96833.72;;;-6.03;82.08
8366;BME280;4220;42.502;24.188;2023-02-11T01:14:45;96832.47;;;-6.29;83.56
8366;BME280;4220;42.502;24.188;2023-02-11T01:17:11;96810.03;;;-6.44;86.00
8366;BME280;4220;42.502;24.188;2023-02-11T01:19:40;96825.16;;;-6.21;86.21
8366;BME280;4220;42.502;24.188;2023-02-11T01:22:07;96820.78;;;-6.36;84.74
8366;BME280;4220;42.502;24.188;2023-02-11T01:24:33;96816.78;;;-6.41;86.19
8366;BME280;4220;42.502;24.188;2023-02-11T01:27:00;96816.81;;;-6.26;85.16
8366;BME280;4220;42.502;24.188;2023-02-11T01:29:27;96818.88;;;-6.15;84.26
8366;BME280;4220;42.502;24.188;2023-02-11T01:31:54;96808.28;;;-6.11;83.39
8366;BME280;4220;42.502;24.188;2023-02-11T01:34:21;96800.25;;;-6.05;81.83
8366;BME280;4220;42.502;24.188;2023-02-11T01:36:49;96808.41;;;-5.97;80.02
8366;BME280;4220;42.502;24.188;2023-02-11T01:39:16;96809.19;;;-6.12;79.67
8366;BME280;4220;42.502;24.188;2023-02-11T01:41:42;96809.19;;;-6.12;79.76
8366;BME280;4220;42.502;24.188;2023-02-11T01:44:25;96797.56;;;-6.03;79.18
8366;BME280;4220;42.502;24.188;2023-02-11T01:46:52;96783.81;;;-6.04;78.26
8366;BME280;4220;42.502;24.188;2023-02-11T01:49:22;96798.16;;;-5.98;77.47
8366;BME280;4220;42.502;24.188;2023-02-11T01:51:55;96794.69;;;-6.14;77.78
8366;BME280;4220;42.502;24.188;2023-02-11T01:54:27;96758.53;;;-6.47;78.82
8366;BME280;4220;42.502;24.188;2023-02-11T01:57:15;96745.78;;;-6.50;79.16
8366;BME280;4220;42.502;24.188;2023-02-11T02:00:00;96797.25;;;-6.30;79.63
8366;BME280;4220;42.502;24.188;2023-02-11T02:02:40;96792.84;;;-6.28;79.89
8366;BME280;4220;42.502;24.188;2023-02-11T02:05:16;96804.47;;;-6.36;81.22
8366;BME280;4220;42.502;24.188;2023-02-11T02:07:54;96791.63;;;-6.72;82.40
8366;BME280;4220;42.502;24.188;2023-02-11T02:10:24;96789.53;;;-6.81;84.45
8366;BME280;4220;42.502;24.188;2023-02-11T02:12:52;96795.69;;;-7.02;86.69
8366;BME280;4220;42.502;24.188;2023-02-11T02:15:24;96790.13;;;-6.93;87.40
8366;BME280;4220;42.502;24.188;2023-02-11T02:18:08;96791.34;;;-6.83;85.91
8366;BME280;4220;42.502;24.188;2023-02-11T02:24:03;96797.03;;;-7.48;88.31
8366;BME280;4220;42.502;24.188;2023-02-11T02:27:01;96785.69;;;-7.63;89.72
8366;BME280;4220;42.502;24.188;2023-02-11T02:29:53;96797.44;;;-7.39;89.84
8366;BME280;4220;42.502;24.188;2023-02-11T02:32:51;96791.19;;;-7.33;88.37
8366;BME280;4220;42.502;24.188;2023-02-11T02:35:30;96785.88;;;-7.30;86.57
8366;BME280;4220;42.502;24.188;2023-02-11T02:38:06;96775.25;;;-7.60;87.75
8366;BME280;4220;42.502;24.188;2023-02-11T02:40:39;96804.63;;;-7.64;89.29
8366;BME280;4220;42.502;24.188;2023-02-11T02:43:08;96810.75;;;-7.66;90.31
8366;BME280;4220;42.502;24.188;2023-02-11T02:45:36;96807.13;;;-7.44;90.43
8366;BME280;4220;42.502;24.188;2023-02-11T02:48:05;96764.38;;;-7.48;89.32
8366;BME280;4220;42.502;24.188;2023-02-11T02:50:34;96791.44;;;-7.20;88.59
8366;BME280;4220;42.502;24.188;2023-02-11T02:53:19;96798.84;;;-6.96;87.43
8366;BME280;4220;42.502;24.188;2023-02-11T02:55:57;96801.47;;;-6.97;86.92
8366;BME280;4220;42.502;24.188;2023-02-11T03:01:26;96809.03;;;-6.76;84.61
8366;BME280;4220;42.502;24.188;2023-02-11T03:04:02;96809.22;;;-6.80;83.88
8366;BME280;4220;42.502;24.188;2023-02-11T03:06:34;96805.13;;;-7.01;84.70
8366;BME280;4220;42.502;24.188;2023-02-11T03:09:06;96813.59;;;-6.99;85.00
8366;BME280;4220;42.502;24.188;2023-02-11T03:11:36;96816.34;;;-6.85;84.10
8366;BME280;4220;42.502;24.188;2023-02-11T03:14:07;96810.78;;;-6.76;82.37
8366;BME280;4220;42.502;24.188;2023-02-11T03:16:37;96813.34;;;-6.76;80.21
8366;BME280;4220;42.502;24.188;2023-02-11T03:19:11;96805.69;;;-7.13;81.70
8366;BME280;4220;42.502;24.188;2023-02-11T03:21:40;96809.13;;;-7.32;82.97
8366;BME280;4220;42.502;24.188;2023-02-11T03:24:12;96813.09;;;-7.24;84.39
8366;BME280;4220;42.502;24.188;2023-02-11T03:26:45;96820.47;;;-7.17;83.23
8366;BME280;4220;42.502;24.188;2023-02-11T03:29:16;96797.50;;;-7.21;82.76
8366;BME280;4220;42.502;24.188;2023-02-11T03:31:51;96803.75;;;-7.08;82.27
8366;BME280;4220;42.502;24.188;2023-02-11T03:34:26;96797.22;;;-7.15;82.82
8366;BME280;4220;42.502;24.188;2023-02-11T03:36:59;96821.97;;;-6.94;82.43
8366;BME280;4220;42.502;24.188;2023-02-11T03:39:31;96812.84;;;-7.01;81.31
8366;BME280;4220;42.502;24.188;2023-02-11T03:42:00;96817.97;;;-7.18;81.61
8366;BME280;4220;42.502;24.188;2023-02-11T03:44:31;96764.25;;;-7.63;82.62
8366;BME280;4220;42.502;24.188;2023-02-11T03:47:02;96810.53;;;-7.43;83.90
8366;BME280;4220;42.502;24.188;2023-02-11T03:49:32;96802.50;;;-7.54;84.73
8366;BME280;4220;42.502;24.188;2023-02-11T03:52:02;96813.13;;;-7.43;85.52
8366;BME280;4220;42.502;24.188;2023-02-11T03:54:31;96805.56;;;-7.29;84.34
8366;BME280;4220;42.502;24.188;2023-02-11T03:57:00;96763.84;;;-7.73;82.24
8366;BME280;4220;42.502;24.188;2023-02-11T03:59:27;96803.25;;;-7.52;83.05
8366;BME280;4220;42.502;24.188;2023-02-11T04:01:54;96808.81;;;-7.43;83.12
8366;BME280;4220;42.502;24.188;2023-02-11T04:04:22;96814.06;;;-7.27;82.33
8366;BME280;4220;42.502;24.188;2023-02-11T04:06:50;96809.34;;;-7.17;81.47
8366;BME280;4220;42.502;24.188;2023-02-11T04:09:17;96802.19;;;-7.12;80.08
8366;BME280;4220;42.502;24.188;2023-02-11T04:11:43;96803.00;;;-7.10;78.96
8366;BME280;4220;42.502;24.188;2023-02-11T04:14:10;96793.44;;;-7.27;79.45
8366;BME280;4220;42.502;24.188;2023-02-11T04:16:37;96801.88;;;-7.23;80.02
8366;BME280;4220;42.502;24.188;2023-02-11T04:19:04;96798.78;;;-7.30;79.59
8366;BME280;4220;42.502;24.188;2023-02-11T04:21:31;96802.72;;;-7.23;80.35
8366;BME280;4220;42.502;24.188;2023-02-11T04:23:59;96798.63;;;-7.46;80.92
8366;BME280;4220;42.502;24.188;2023-02-11T04:26:26;96810.19;;;-7.73;84.48
8366;BME280;4220;42.502;24.188;2023-02-11T04:28:52;96794.97;;;-7.77;85.63
8366;BME280;4220;42.502;24.188;2023-02-11T04:31:19;96800.19;;;-7.79;86.46
8366;BME280;4220;42.502;24.188;2023-02-11T04:33:46;96795.19;;;-7.82;86.27
8366;BME280;4220;42.502;24.188;2023-02-11T04:36:13;96786.69;;;-7.84;86.47
8366;BME280;4220;42.502;24.188;2023-02-11T04:38:40;96781.75;;;-7.70;86.31
8366;BME280;4220;42.502;24.188;2023-02-11T04:41:08;96801.09;;;-7.80;85.94
8366;BME280;4220;42.502;24.188;2023-02-11T04:43:35;96796.03;;;-7.81;86.70
8366;BME280;4220;42.502;24.188;2023-02-11T04:46:01;96785.97;;;-7.69;85.29
8366;BME280;4220;42.502;24.188;2023-02-11T04:48:28;96791.91;;;-7.67;84.55
8366;BME280;4220;42.502;24.188;2023-02-11T04:50:55;96782.94;;;-7.77;84.87
8366;BME280;4220;42.502;24.188;2023-02-11T04:53:22;96773.78;;;-7.65;85.81
8366;BME280;4220;42.502;24.188;2023-02-11T04:55:49;96793.47;;;-7.46;84.65
8366;BME280;4220;42.502;24.188;2023-02-11T04:58:18;96786.09;;;-7.35;83.73
8366;BME280;4220;42.502;24.188;2023-02-11T05:00:45;96781.41;;;-7.26;82.49
8366;BME280;4220;42.502;24.188;2023-02-11T05:03:12;96783.00;;;-7.24;80.59
8366;BME280;4220;42.502;24.188;2023-02-11T05:05:40;96776.94;;;-7.23;80.18
8366;BME280;4220;42.502;24.188;2023-02-11T05:08:07;96783.09;;;-7.25;79.65
8366;BME280;4220;42.502;24.188;2023-02-11T05:10:34;96775.22;;;-7.22;79.41
8366;BME280;4220;42.502;24.188;2023-02-11T05:13:01;96778.41;;;-7.17;79.19
8366;BME280;4220;42.502;24.188;2023-02-11T05:15:30;96770.81;;;-7.20;78.10
8366;BME280;4220;42.502;24.188;2023-02-11T05:17:57;96784.91;;;-7.27;77.91
8366;BME280;4220;42.502;24.188;2023-02-11T05:20:24;96781.97;;;-7.39;78.00
8366;BME280;4220;42.502;24.188;2023-02-11T05:22:51;96787.22;;;-7.59;79.57
8366;BME280;4220;42.502;24.188;2023-02-11T05:25:18;96773.31;;;-7.55;81.67
8366;BME280;4220;42.502;24.188;2023-02-11T05:27:45;96777.31;;;-7.49;81.67
8366;BME280;4220;42.502;24.188;2023-02-11T05:30:12;96779.09;;;-7.50;81.13
8366;BME280;4220;42.502;24.188;2023-02-11T05:32:40;96766.47;;;-7.56;81.04
8366;BME280;4220;42.502;24.188;2023-02-11T05:35:07;96769.69;;;-7.69;81.35
8366;BME280;4220;42.502;24.188;2023-02-11T05:37:34;96774.34;;;-7.77;82.07
8366;BME280;4220;42.502;24.188;2023-02-11T05:40:01;96779.84;;;-7.66;82.11
8366;BME280;4220;42.502;24.188;2023-02-11T05:42:28;96780.28;;;-7.57;81.53
8366;BME280;4220;42.502;24.188;2023-02-11T05:44:54;96783.88;;;-7.42;80.80
8366;BME280;4220;42.502;24.188;2023-02-11T05:47:21;96783.59;;;-7.36;79.25
8366;BME280;4220;42.502;24.188;2023-02-11T05:49:50;96784.13;;;-7.30;78.72
8366;BME280;4220;42.502;24.188;2023-02-11T05:52:17;96787.09;;;-7.37;78.22
8366;BME280;4220;42.502;24.188;2023-02-11T05:54:44;96783.81;;;-7.41;79.19
8366;BME280;4220;42.502;24.188;2023-02-11T05:57:11;96781.72;;;-7.51;78.01
8366;BME280;4220;42.502;24.188;2023-02-11T05:59:38;96797.00;;;-7.84;79.87
8366;BME280;4220;42.502;24.188;2023-02-11T06:02:05;96788.47;;;-7.86;81.87
8366;BME280;4220;42.502;24.188;2023-02-11T06:04:33;96804.63;;;-7.64;81.68
8366;BME280;4220;42.502;24.188;2023-02-11T06:07:01;96800.44;;;-7.66;80.91
8366;BME280;4220;42.502;24.188;2023-02-11T06:09:28;96796.50;;;-7.55;80.92
8366;BME280;4220;42.502;24.188;2023-02-11T06:11:55;96798.28;;;-7.38;79.67
8366;BME280;4220;42.502;24.188;2023-02-11T06:14:22;96802.72;;;-7.23;78.67
8366;BME280;4220;42.502;24.188;2023-02-11T06:16:49;96785.22;;;-7.16;77.29
8366;BME280;4220;42.502;24.188;2023-02-11T06:19:16;96791.25;;;-6.99;75.65
8366;BME280;4220;42.502;24.188;2023-02-11T06:21:42;96798.75;;;-6.94;74.85
8366;BME280;4220;42.502;24.188;2023-02-11T06:24:11;96797.09;;;-6.95;75.65
8366;BME280;4220;42.502;24.188;2023-02-11T06:26:38;96784.34;;;-6.98;75.27
8366;BME280;4220;42.502;24.188;2023-02-11T06:29:05;96793.38;;;-6.90;74.72
8366;BME280;4220;42.502;24.188;2023-02-11T06:31:31;96778.72;;;-6.89;74.38
8366;BME280;4220;42.502;24.188;2023-02-11T06:33:58;96789.06;;;-6.72;74.05
8366;BME280;4220;42.502;24.188;2023-02-11T06:36:26;96799.16;;;-6.68;72.88
8366;BME280;4220;42.502;24.188;2023-02-11T06:38:52;96789.91;;;-6.54;72.01
8366;BME280;4220;42.502;24.188;2023-02-11T06:41:21;96795.03;;;-6.37;71.33
8366;BME280;4220;42.502;24.188;2023-02-11T06:43:49;96792.75;;;-6.26;70.88
8366;BME280;4220;42.502;24.188;2023-02-11T06:46:17;96790.22;;;-6.11;69.96
8366;BME280;4220;42.502;24.188;2023-02-11T06:48:44;96787.59;;;-5.93;71.21
8366;BME280;4220;42.502;24.188;2023-02-11T06:51:12;96792.91;;;-5.81;70.48
8366;BME280;4220;42.502;24.188;2023-02-11T06:53:42;96796.09;;;-5.76;71.22
8366;BME280;4220;42.502;24.188;2023-02-11T06:56:10;96794.16;;;-5.72;70.32
8366;BME280;4220;42.502;24.188;2023-02-11T06:58:40;96740.50;;;-5.99;68.74
8366;BME280;4220;42.502;24.188;2023-02-11T07:01:08;96781.75;;;-5.81;67.11
8366;BME280;4220;42.502;24.188;2023-02-11T07:03:37;96786.44;;;-5.88;68.43
8366;BME280;4220;42.502;24.188;2023-02-11T07:06:06;96788.50;;;-5.79;69.86
8366;BME280;4220;42.502;24.188;2023-02-11T07:08:34;96777.44;;;-5.65;68.05
8366;BME280;4220;42.502;24.188;2023-02-11T07:11:08;96770.78;;;-5.54;67.83
8366;BME280;4220;42.502;24.188;2023-02-11T07:13:35;96767.34;;;-5.23;66.84
8366;BME280;4220;42.502;24.188;2023-02-11T07:16:05;96782.06;;;-4.94;65.28
8366;BME280;4220;42.502;24.188;2023-02-11T07:18:32;96774.84;;;-4.73;63.83
8366;BME280;4220;42.502;24.188;2023-02-11T07:20:58;96763.72;;;-4.59;63.42
8366;BME280;4220;42.502;24.188;2023-02-11T07:23:26;96780.31;;;-4.34;62.77
8366;BME280;4220;42.502;24.188;2023-02-11T07:25:52;96771.53;;;-4.17;62.50
8366;BME280;4220;42.502;24.188;2023-02-11T07:28:19;96770.06;;;-4.07;61.53
8366;BME280;4220;42.502;24.188;2023-02-11T07:30:46;96768.50;;;-3.96;61.67
8366;BME280;4220;42.502;24.188;2023-02-11T07:33:14;96770.44;;;-3.85;60.67
8366;BME280;4220;42.502;24.188;2023-02-11T07:35:41;96771.38;;;-3.72;60.90
8366;BME280;4220;42.502;24.188;2023-02-11T07:38:08;96767.31;;;-3.62;61.10
8366;BME280;4220;42.502;24.188;2023-02-11T07:40:35;96771.00;;;-3.52;61.36
8366;BME280;4220;42.502;24.188;2023-02-11T07:43:02;96762.22;;;-3.37;60.89
8366;BME280;4220;42.502;24.188;2023-02-11T07:45:29;96760.53;;;-3.23;61.24
8366;BME280;4220;42.502;24.188;2023-02-11T07:47:56;96762.53;;;-3.14;60.90
8366;BME280;4220;42.502;24.188;2023-02-11T07:50:24;96761.69;;;-3.01;61.05
8366;BME280;4220;42.502;24.188;2023-02-11T07:52:51;96747.88;;;-3.01;61.23
8366;BME280;4220;42.502;24.188;2023-02-11T07:55:17;96745.44;;;-2.90;61.89
8366;BME280;4220;42.502;24.188;2023-02-11T07:57:44;96752.53;;;-2.67;61.58
8366;BME280;4220;42.502;24.188;2023-02-11T08:00:12;96747.50;;;-2.56;61.00
8366;BME280;4220;42.502;24.188;2023-02-11T08:02:39;96752.94;;;-2.34;60.73
8366;BME280;4220;42.502;24.188;2023-02-11T08:05:06;96751.66;;;-2.16;59.84
8366;BME280;4220;42.502;24.188;2023-02-11T08:07:35;96743.69;;;-2.00;57.96
8366;BME280;4220;42.502;24.188;2023-02-11T08:10:02;96730.88;;;-1.90;57.20
8366;BME280;4220;42.502;24.188;2023-02-11T08:12:29;96743.34;;;-1.70;57.72
8366;BME280;4220;42.502;24.188;2023-02-11T08:14:56;96651.78;;;-2.12;56.71
8366;BME280;4220;42.502;24.188;2023-02-11T08:17:22;96736.00;;;-1.40;56.29
8366;BME280;4220;42.502;24.188;2023-02-11T08:19:49;96733.75;;;-1.21;55.63
8366;BME280;4220;42.502;24.188;2023-02-11T08:22:16;96727.31;;;-1.04;55.12
8366;BME280;4220;42.502;24.188;2023-02-11T08:24:44;96739.63;;;-0.83;54.37
8366;BME280;4220;42.502;24.188;2023-02-11T08:27:11;96727.59;;;-0.73;53.14
8366;BME280;4220;42.502;24.188;2023-02-11T08:29:38;96735.69;;;-0.53;52.84
8366;BME280;4220;42.502;24.188;2023-02-11T08:32:05;96721.63;;;-0.51;52.63
8366;BME280;4220;42.502;24.188;2023-02-11T08:34:32;96731.38;;;-0.31;52.46
8366;BME280;4220;42.502;24.188;2023-02-11T08:36:58;96732.94;;;-0.17;52.00
8366;BME280;4220;42.502;24.188;2023-02-11T08:39:25;96738.69;;;-0.01;52.29
8366;BME280;4220;42.502;24.188;2023-02-11T08:41:54;96726.59;;;0.09;51.59
8366;BME280;4220;42.502;24.188;2023-02-11T08:44:22;96719.72;;;0.19;51.30
8366;BME280;4220;42.502;24.188;2023-02-11T08:46:50;96730.63;;;0.13;51.23
8366;BME280;4220;42.502;24.188;2023-02-11T08:49:17;96732.53;;;0.33;51.25
8366;BME280;4220;42.502;24.188;2023-02-11T08:51:45;96686.53;;;0.21;50.39
8366;BME280;4220;42.502;24.188;2023-02-11T08:54:12;96726.00;;;0.61;50.27
8366;BME280;4220;42.502;24.188;2023-02-11T08:56:39;96717.69;;;0.56;50.02
8366;BME280;4220;42.502;24.188;2023-02-11T08:59:08;96727.66;;;0.62;49.69
8366;BME280;4220;42.502;24.188;2023-02-11T09:01:35;96725.63;;;0.54;49.62
8366;BME280;4220;42.502;24.188;2023-02-11T09:04:02;96718.78;;;0.53;49.54
8366;BME280;4220;42.502;24.188;2023-02-11T09:06:29;96719.44;;;0.66;50.13
8366;BME280;4220;42.502;24.188;2023-02-11T09:08:56;96719.41;;;0.89;49.55
8366;BME280;4220;42.502;24.188;2023-02-11T09:11:26;96725.16;;;1.14;47.71
8366;BME280;4220;42.502;24.188;2023-02-11T09:13:53;96719.53;;;1.30;45.19
8366;BME280;4220;42.502;24.188;2023-02-11T09:16:23;96725.22;;;1.35;45.81
8366;BME280;4220;42.502;24.188;2023-02-11T09:18:51;96719.91;;;1.46;46.36
8366;BME280;4220;42.502;24.188;2023-02-11T09:21:18;96712.22;;;1.65;46.25
8366;BME280;4220;42.502;24.188;2023-02-11T09:23:46;96731.66;;;1.72;44.55
8366;BME280;4220;42.502;24.188;2023-02-11T09:26:15;96723.31;;;1.78;43.82
8366;BME280;4220;42.502;24.188;2023-02-11T09:28:42;96720.31;;;2.04;44.36
8366;BME280;4220;42.502;24.188;2023-02-11T09:31:10;96716.81;;;2.24;43.76
8366;BME280;4220;42.502;24.188;2023-02-11T09:33:40;96705.88;;;2.39;43.14
8366;BME280;4220;42.502;24.188;2023-02-11T09:36:13;96703.31;;;2.58;42.13
8366;BME280;4220;42.502;24.188;2023-02-11T09:38:40;96686.41;;;2.72;40.79
8366;BME280;4220;42.502;24.188;2023-02-11T09:41:22;96705.50;;;3.03;40.04
8366;BME280;4220;42.502;24.188;2023-02-11T09:43:55;96699.16;;;3.05;39.81
8366;BME280;4220;42.502;24.188;2023-02-11T09:46:23;96678.75;;;2.90;38.39
8366;BME280;4220;42.502;24.188;2023-02-11T09:48:54;96676.25;;;3.07;38.58
8366;BME280;4220;42.502;24.188;2023-02-11T09:51:30;96663.56;;;3.12;39.13
8366;BME280;4220;42.502;24.188;2023-02-11T09:54:03;96630.72;;;2.70;39.83
8366;BME280;4220;42.502;24.188;2023-02-11T09:56:31;96674.88;;;2.94;39.53
8366;BME280;4220;42.502;24.188;2023-02-11T09:58:58;96635.16;;;2.98;39.78
8366;BME280;4220;42.502;24.188;2023-02-11T10:01:32;96664.69;;;3.39;38.49
8366;BME280;4220;42.502;24.188;2023-02-11T10:04:03;96650.56;;;3.59;36.16
8366;BME280;4220;42.502;24.188;2023-02-11T10:06:38;96659.16;;;3.61;35.05
8366;BME280;4220;42.502;24.188;2023-02-11T10:09:27;96649.69;;;3.87;34.90
8366;BME280;4220;42.502;24.188;2023-02-11T10:12:09;96636.34;;;4.17;35.28
8366;BME280;4220;42.502;24.188;2023-02-11T10:14:53;96639.94;;;4.43;35.07
8366;BME280;4220;42.502;24.188;2023-02-11T10:17:30;96635.56;;;4.61;34.35
8366;BME280;4220;42.502;24.188;2023-02-11T10:20:13;96626.84;;;4.61;34.24
8366;BME280;4220;42.502;24.188;2023-02-11T10:22:45;96628.38;;;4.63;34.32
8366;BME280;4220;42.502;24.188;2023-02-11T10:25:19;96613.75;;;4.79;34.44
8366;BME280;4220;42.502;24.188;2023-02-11T10:27:46;96613.81;;;4.87;34.64
8366;BME280;4220;42.502;24.188;2023-02-11T10:30:21;96599.72;;;4.88;34.92
8366;BME280;4220;42.502;24.188;2023-02-11T10:32:52;96610.50;;;4.85;34.60
8366;BME280;4220;42.502;24.188;2023-02-11T10:35:22;96601.81;;;5.02;34.40
8366;BME280;4220;42.502;24.188;2023-02-11T10:37:52;96595.22;;;5.15;34.37
8366;BME280;4220;42.502;24.188;2023-02-11T10:40:20;96594.22;;;5.16;33.95
8366;BME280;4220;42.502;24.188;2023-02-11T10:42:49;96582.34;;;5.30;33.92
8366;BME280;4220;42.502;24.188;2023-02-11T10:45:22;96584.31;;;5.54;33.62
8366;BME280;4220;42.502;24.188;2023-02-11T10:47:50;96573.47;;;5.82;34.03
8366;BME280;4220;42.502;24.188;2023-02-11T10:50:23;96567.38;;;6.08;33.30
8366;BME280;4220;42.502;24.188;2023-02-11T10:52:50;96569.53;;;6.46;32.78
8366;BME280;4220;42.502;24.188;2023-02-11T10:55:18;96558.06;;;6.71;32.57
8366;BME280;4220;42.502;24.188;2023-02-11T10:57:53;96560.41;;;6.82;31.87
8366;BME280;4220;42.502;24.188;2023-02-11T11:00:33;96556.72;;;6.59;32.09
8366;BME280;4220;42.502;24.188;2023-02-11T11:03:04;96550.00;;;6.73;31.74
8366;BME280;4220;42.502;24.188;2023-02-11T11:05:36;96548.88;;;6.91;31.31
8366;BME280;4220;42.502;24.188;2023-02-11T11:08:11;96545.56;;;6.89;31.02
8366;BME280;4220;42.502;24.188;2023-02-11T11:10:40;96551.81;;;6.80;30.26
8366;BME280;4220;42.502;24.188;2023-02-11T11:13:26;96540.47;;;6.30;29.64
8366;BME280;4220;42.502;24.188;2023-02-11T11:18:49;96532.75;;;5.86;30.16
8366;BME280;4220;42.502;24.188;2023-02-11T11:21:23;96522.56;;;5.91;29.85
8366;BME280;4220;42.502;24.188;2023-02-11T11:23:54;96512.59;;;6.19;30.92
8366;BME280;4220;42.502;24.188;2023-02-11T11:26:22;96505.59;;;6.44;29.79
8366;BME280;4220;42.502;24.188;2023-02-11T11:28:53;96510.28;;;6.98;29.35
8366;BME280;4220;42.502;24.188;2023-02-11T11:31:23;96466.44;;;6.81;30.39
8366;BME280;4220;42.502;24.188;2023-02-11T11:33:54;96461.00;;;6.50;30.94
8366;BME280;4220;42.502;24.188;2023-02-11T11:36:31;96498.88;;;6.49;31.74
8366;BME280;4220;42.502;24.188;2023-02-11T11:39:02;96442.97;;;6.14;32.59
8366;BME280;4220;42.502;24.188;2023-02-11T11:41:36;96491.47;;;6.53;32.84
8366;BME280;4220;42.502;24.188;2023-02-11T11:44:22;96486.38;;;6.84;33.00
8366;BME280;4220;42.502;24.188;2023-02-11T11:46:53;96483.88;;;7.47;32.89
8366;BME280;4220;42.502;24.188;2023-02-11T11:49:33;96470.66;;;8.02;32.23
8366;BME280;4220;42.502;24.188;2023-02-11T11:52:13;96488.06;;;8.57;30.45
8366;BME280;4220;42.502;24.188;2023-02-11T11:54:46;96484.59;;;8.18;30.23
8366;BME280;4220;42.502;24.188;2023-02-11T11:57:18;96480.06;;;8.04;30.40
8366;BME280;4220;42.502;24.188;2023-02-11T11:59:47;96474.50;;;7.91;30.42
8366;BME280;4220;42.502;24.188;2023-02-11T12:02:39;96473.78;;;7.66;31.06
8366;BME280;4220;42.502;24.188;2023-02-11T12:05:22;96466.50;;;7.60;31.58
8366;BME280;4220;42.502;24.188;2023-02-11T12:08:00;96448.44;;;7.88;31.68
8366;BME280;4220;42.502;24.188;2023-02-11T12:10:47;96453.19;;;8.31;31.47
8366;BME280;4220;42.502;24.188;2023-02-11T12:13:29;96456.03;;;7.91;28.96
8366;BME280;4220;42.502;24.188;2023-02-11T12:16:06;96423.78;;;7.57;30.61
8366;BME280;4220;42.502;24.188;2023-02-11T12:19:05;96445.91;;;7.48;30.87
8366;BME280;4220;42.502;24.188;2023-02-11T12:21:46;96441.47;;;7.40;31.64
8366;BME280;4220;42.502;24.188;2023-02-11T12:24:28;96442.63;;;7.38;32.13
8366;BME280;4220;42.502;24.188;2023-02-11T12:27:00;96437.97;;;7.56;33.08
8366;BME280;4220;42.502;24.188;2023-02-11T12:29:39;96387.50;;;7.51;32.46
8366;BME280;4220;42.502;24.188;2023-02-11T12:32:19;96425.72;;;7.71;32.97
8366;BME280;4220;42.502;24.188;2023-02-11T12:38:11;96377.44;;;7.07;33.15
8366;BME280;4220;42.502;24.188;2023-02-11T12:40:45;96422.91;;;7.09;33.68
8366;BME280;4220;42.502;24.188;2023-02-11T12:43:19;96397.91;;;6.73;34.06
8366;BME280;4220;42.502;24.188;2023-02-11T12:46:01;96410.09;;;6.74;34.07
8366;BME280;4220;42.502;24.188;2023-02-11T12:49:00;96413.03;;;6.95;34.13
8366;BME280;4220;42.502;24.188;2023-02-11T12:51:36;96397.06;;;6.89;33.78
8366;BME280;4220;42.502;24.188;2023-02-11T12:54:18;96410.25;;;6.65;34.21
8366;BME280;4220;42.502;24.188;2023-02-11T12:56:52;96416.00;;;6.76;34.55
8366;BME280;4220;42.502;24.188;2023-02-11T12:59:32;96400.19;;;6.76;34.68
8366;BME280;4220;42.502;24.188;2023-02-11T13:02:05;96396.25;;;6.72;34.60
8366;BME280;4220;42.502;24.188;2023-02-11T13:04:40;96379.47;;;6.73;34.62
8366;BME280;4220;42.502;24.188;2023-02-11T13:07:15;96399.69;;;6.81;34.49
8366;BME280;4220;42.502;24.188;2023-02-11T13:09:47;96396.03;;;6.98;34.40
8366;BME280;4220;42.502;24.188;2023-02-11T13:12:18;96386.06;;;7.40;34.00
8366;BME280;4220;42.502;24.188;2023-02-11T13:15:08;96391.63;;;7.53;33.99
8366;BME280;4220;42.502;24.188;2023-02-11T13:17:39;96388.06;;;7.38;34.09
8366;BME280;4220;42.502;24.188;2023-02-11T13:20:20;96373.47;;;7.58;34.32
8366;BME280;4220;42.502;24.188;2023-02-11T13:22:55;96374.53;;;7.72;33.05
8366;BME280;4220;42.502;24.188;2023-02-11T13:25:30;96384.31;;;7.71;33.09
8366;BME280;4220;42.502;24.188;2023-02-11T13:28:10;96399.09;;;7.80;33.05
8366;BME280;4220;42.502;24.188;2023-02-11T13:30:43;96379.16;;;7.78;33.56
8366;BME280;4220;42.502;24.188;2023-02-11T13:33:30;96380.31;;;7.75;33.25
8366;BME280;4220;42.502;24.188;2023-02-11T13:36:28;96394.03;;;7.32;33.30
8366;BME280;4220;42.502;24.188;2023-02-11T13:39:02;96383.81;;;7.13;33.78
8366;BME280;4220;42.502;24.188;2023-02-11T13:41:33;96370.16;;;7.09;33.05
8366;BME280;4220;42.502;24.188;2023-02-11T13:44:20;96372.28;;;7.22;33.50
8366;BME280;4220;42.502;24.188;2023-02-11T13:46:53;96382.16;;;7.20;32.70